createdAt,value
2023-07-25T00:00:37.497Z,52.04
2023-07-25T00:05:55.753Z,52.61
2023-07-25T00:08:24.790Z,52.29
2023-07-25T00:10:54.178Z,51.73
2023-07-25T00:13:23.500Z,52.07
2023-07-25T00:15:54.407Z,52.09
2023-07-25T00:18:23.550Z,51.86
2023-07-25T00:20:53.195Z,51.78
2023-07-25T00:23:22.357Z,51.68
2023-07-25T00:25:51.754Z,51.85
2023-07-25T00:28:21.462Z,51.64
2023-07-25T00:30:56.874Z,51.86
2023-07-25T00:33:30.225Z,51.54
2023-07-25T00:35:59.665Z,51.70
2023-07-25T00:38:28.757Z,51.84
2023-07-25T00:40:58.153Z,52.64
2023-07-25T00:43:27.316Z,52.71
2023-07-25T00:45:56.753Z,53.26
2023-07-25T00:48:25.862Z,53.29
2023-07-25T00:50:56.740Z,53.79
2023-07-25T00:53:25.811Z,53.38
2023-07-25T00:55:55.237Z,54.01
2023-07-25T00:58:24.322Z,53.76
2023-07-25T01:00:53.765Z,53.34
2023-07-25T01:03:23.012Z,53.69
2023-07-25T01:05:52.501Z,53.54
2023-07-25T01:08:22.966Z,53.49
2023-07-25T01:10:52.438Z,53.22
2023-07-25T01:13:21.585Z,53.03
2023-07-25T01:15:51.394Z,52.95
2023-07-25T01:18:20.455Z,52.73
2023-07-25T01:20:50.143Z,52.89
2023-07-25T01:23:19.247Z,52.86
2023-07-25T01:25:50.261Z,52.70
2023-07-25T01:28:19.313Z,52.71
2023-07-25T01:30:49.073Z,52.43
2023-07-25T01:33:18.174Z,53.82
2023-07-25T01:35:47.629Z,53.59
2023-07-25T01:38:16.773Z,53.27
2023-07-25T01:40:46.150Z,53.48
2023-07-25T01:43:16.651Z,53.93
2023-07-25T01:45:46.125Z,53.77
2023-07-25T01:48:15.170Z,54.06
2023-07-25T01:50:44.530Z,54.31
2023-07-25T01:53:13.577Z,54.74
2023-07-25T01:55:43.020Z,54.86
2023-07-25T01:58:12.103Z,55.45
2023-07-25T02:00:43.221Z,56.34
2023-07-25T02:03:12.551Z,55.64
2023-07-25T02:05:42.024Z,56.31
2023-07-25T02:08:12.216Z,56.20
2023-07-25T02:10:41.724Z,55.77
2023-07-25T02:13:10.741Z,56.22
2023-07-25T02:15:40.101Z,56.17
2023-07-25T02:18:10.580Z,56.34
2023-07-25T02:20:40.071Z,55.83
2023-07-25T02:23:09.243Z,55.68
2023-07-25T02:25:38.632Z,56.00
2023-07-25T02:28:07.715Z,55.88
2023-07-25T02:30:37.074Z,56.44
2023-07-25T02:33:06.237Z,56.47
2023-07-25T02:35:37.370Z,56.90
2023-07-25T02:38:06.454Z,56.39
2023-07-25T02:40:35.854Z,56.53
2023-07-25T02:43:05.009Z,57.17
2023-07-25T02:45:34.381Z,57.25
2023-07-25T02:48:03.645Z,56.30
2023-07-25T02:50:33.138Z,56.26
2023-07-25T02:53:03.610Z,56.33
2023-07-25T02:55:32.980Z,56.62
2023-07-25T02:58:01.994Z,56.80
2023-07-25T03:00:31.502Z,56.94
2023-07-25T03:03:00.658Z,56.60
2023-07-25T03:05:30.380Z,56.79
2023-07-25T03:07:59.457Z,57.00
2023-07-25T03:10:30.371Z,57.31
2023-07-25T03:12:59.418Z,57.41
2023-07-25T03:15:28.788Z,57.08
2023-07-25T03:17:57.841Z,57.18
2023-07-25T03:20:27.512Z,56.90
2023-07-25T03:22:56.742Z,56.71
2023-07-25T03:25:26.181Z,56.52
2023-07-25T03:27:56.682Z,56.91
2023-07-25T03:30:26.115Z,56.82
2023-07-25T03:32:55.275Z,56.51
2023-07-25T03:35:24.823Z,56.81
2023-07-25T03:37:53.924Z,56.83
2023-07-25T03:40:23.348Z,56.71
2023-07-25T03:42:52.396Z,56.71
2023-07-25T03:45:23.125Z,56.70
2023-07-25T03:47:52.177Z,56.89
2023-07-25T03:50:21.740Z,56.72
2023-07-25T03:52:50.819Z,56.71
2023-07-25T03:55:20.262Z,57.01
2023-07-25T03:57:49.312Z,56.93
2023-07-25T04:00:17.797Z,57.08
2023-07-25T04:02:57.300Z,56.76
2023-07-25T04:05:34.772Z,57.11
2023-07-25T04:08:04.235Z,57.29
2023-07-25T04:10:33.700Z,57.31
2023-07-25T04:13:02.792Z,58.36
2023-07-25T04:15:32.199Z,57.97
2023-07-25T04:18:03.049Z,58.02
2023-07-25T04:20:32.541Z,58.11
2023-07-25T04:23:03.144Z,58.79
2023-07-25T04:25:32.595Z,58.40
2023-07-25T04:28:01.686Z,58.11
2023-07-25T04:30:31.240Z,58.50
2023-07-25T04:33:00.374Z,58.85
2023-07-25T04:35:31.475Z,58.81
2023-07-25T04:38:00.696Z,58.96
2023-07-25T04:40:31.128Z,59.01
2023-07-25T04:43:00.394Z,59.39
2023-07-25T04:45:30.204Z,59.36
2023-07-25T04:48:03.777Z,59.22
2023-07-25T04:50:46.353Z,59.26
2023-07-25T04:53:15.544Z,59.06
2023-07-25T04:55:45.218Z,59.06
2023-07-25T04:58:14.395Z,58.91
2023-07-25T05:00:44.223Z,58.81
2023-07-25T05:03:13.559Z,58.82
2023-07-25T05:05:47.781Z,58.82
2023-07-25T05:08:17.009Z,58.66
2023-07-25T05:10:46.606Z,58.38
2023-07-25T05:13:15.840Z,58.33
2023-07-25T05:15:45.408Z,58.44
2023-07-25T05:18:14.585Z,58.20
2023-07-25T05:20:45.549Z,58.16
2023-07-25T05:23:16.258Z,57.96
2023-07-25T05:25:50.573Z,58.03
2023-07-25T05:28:20.308Z,58.08
2023-07-25T05:30:50.048Z,58.38
2023-07-25T05:33:28.545Z,58.25
2023-07-25T05:36:03.879Z,58.25
2023-07-25T05:38:34.532Z,58.36
2023-07-25T05:41:14.782Z,58.30
2023-07-25T05:43:46.820Z,58.18
2023-07-25T05:46:16.585Z,58.28
2023-07-25T05:48:45.914Z,58.27
2023-07-25T05:51:18.098Z,58.30
2023-07-25T05:53:48.844Z,58.28
2023-07-25T05:56:18.476Z,58.33
2023-07-25T05:58:47.865Z,58.18
2023-07-25T06:01:17.479Z,58.16
2023-07-25T06:03:46.675Z,57.82
2023-07-25T06:06:16.241Z,57.79
2023-07-25T06:08:45.505Z,58.05
2023-07-25T06:11:17.033Z,57.66
2023-07-25T06:13:48.042Z,57.77
2023-07-25T06:16:17.767Z,57.71
2023-07-25T06:18:46.900Z,57.63
2023-07-25T06:21:16.303Z,57.61
2023-07-25T06:23:45.301Z,57.53
2023-07-25T06:26:14.737Z,57.48
2023-07-25T06:28:45.647Z,57.53
2023-07-25T06:31:15.140Z,57.57
2023-07-25T06:33:44.349Z,57.38
2023-07-25T06:36:13.738Z,57.56
2023-07-25T06:38:42.806Z,57.34
2023-07-25T06:41:12.646Z,57.01
2023-07-25T06:43:42.249Z,56.82
2023-07-25T06:46:13.130Z,56.68
2023-07-25T06:48:42.403Z,56.80
2023-07-25T06:51:11.838Z,56.86
2023-07-25T06:53:40.910Z,56.80
2023-07-25T06:56:11.527Z,56.89
2023-07-25T06:58:40.714Z,57.05
2023-07-25T07:01:12.660Z,56.39
2023-07-25T07:06:41.867Z,56.29
2023-07-25T07:09:11.006Z,56.22
2023-07-25T07:12:27.585Z,56.02
2023-07-25T07:14:59.593Z,56.29
2023-07-25T07:17:30.103Z,56.21
2023-07-25T07:20:01.905Z,55.70
2023-07-25T07:22:36.828Z,55.77
2023-07-25T07:25:07.431Z,55.75
2023-07-25T07:27:50.834Z,55.83
2023-07-25T07:30:25.853Z,55.98
2023-07-25T07:33:16.012Z,55.55
2023-07-25T07:35:50.898Z,55.54
2023-07-25T07:39:06.480Z,55.24
2023-07-25T08:00:00.632Z,54.49
2023-07-25T08:02:34.025Z,54.62
2023-07-25T08:05:03.302Z,54.66
2023-07-25T08:07:32.741Z,54.67
2023-07-25T08:10:01.988Z,54.68
2023-07-25T08:12:31.712Z,54.37
2023-07-25T08:15:02.301Z,54.53
2023-07-25T08:17:31.767Z,54.23
2023-07-25T08:20:01.413Z,54.13
2023-07-25T08:22:37.014Z,54.00
2023-07-25T08:25:15.548Z,53.94
2023-07-25T08:27:44.960Z,53.91
2023-07-25T08:30:15.576Z,53.75
2023-07-25T08:32:45.021Z,53.40
2023-07-25T08:35:14.167Z,53.41
2023-07-25T08:37:43.621Z,53.25
2023-07-25T08:40:13.204Z,53.06
2023-07-25T08:42:43.622Z,52.94
2023-07-25T08:45:17.198Z,52.88
2023-07-25T08:47:47.454Z,52.88
2023-07-25T08:50:17.123Z,52.95
2023-07-25T08:52:48.504Z,52.79
2023-07-25T08:55:17.831Z,53.04
2023-07-25T08:57:52.673Z,53.05
2023-07-25T09:00:47.864Z,52.98
2023-07-25T09:03:36.273Z,52.80
2023-07-25T09:06:18.831Z,52.66
2023-07-25T09:09:03.130Z,52.66
2023-07-25T09:11:51.938Z,52.40
2023-07-25T09:14:26.965Z,52.40
2023-07-25T09:17:05.052Z,52.60
2023-07-25T09:19:42.225Z,52.41
2023-07-25T09:22:30.710Z,52.47
2023-07-25T09:25:14.553Z,52.65
2023-07-25T09:28:01.368Z,52.63
2023-07-25T09:31:06.600Z,52.63
2023-07-25T09:34:10.881Z,53.03
2023-07-25T09:37:17.669Z,52.61
2023-07-25T09:40:17.654Z,51.90
2023-07-25T09:42:55.701Z,52.11
2023-07-25T09:46:14.294Z,51.98
2023-07-25T09:49:02.969Z,51.91
2023-07-25T09:52:13.254Z,51.91
2023-07-25T09:55:13.363Z,51.09
2023-07-25T09:57:55.817Z,50.87
2023-07-25T10:04:06.853Z,50.68
2023-07-25T10:06:41.404Z,50.87
2023-07-25T10:09:37.229Z,50.82
2023-07-25T10:12:29.202Z,50.68
2023-07-25T10:15:15.150Z,50.65
2023-07-25T10:18:01.903Z,50.35
2023-07-25T10:20:36.066Z,49.48
2023-07-25T10:23:18.638Z,49.66
2023-07-25T10:26:10.412Z,49.19
2023-07-25T10:33:35.026Z,49.54
2023-07-25T10:36:59.368Z,49.72
2023-07-25T10:39:50.580Z,50.20
2023-07-25T10:43:08.080Z,49.66
2023-07-25T10:46:08.111Z,48.91
2023-07-25T10:49:42.638Z,49.11
2023-07-25T10:56:38.590Z,47.00
2023-07-25T11:03:15.387Z,47.18
2023-07-25T11:06:37.594Z,47.23
2023-07-25T11:28:09.445Z,46.21
2023-07-25T11:48:04.940Z,46.60
2023-07-25T11:51:26.401Z,46.53
2023-07-25T11:54:09.978Z,46.55
2023-07-25T11:56:46.252Z,46.48
2023-07-25T11:59:19.294Z,46.17
2023-07-25T12:01:50.266Z,46.18
2023-07-25T12:04:30.965Z,46.59
2023-07-25T12:07:03.721Z,46.74
2023-07-25T12:09:37.591Z,46.63
2023-07-25T12:12:13.667Z,46.18
2023-07-25T12:14:43.383Z,46.05
2023-07-25T12:17:12.807Z,45.92
2023-07-25T12:19:41.978Z,46.20
2023-07-25T12:22:13.070Z,46.02
2023-07-25T12:24:42.478Z,46.28
2023-07-25T12:27:17.374Z,46.55
2023-07-25T12:29:46.509Z,46.37
2023-07-25T12:32:16.021Z,46.52
2023-07-25T12:34:46.423Z,46.51
2023-07-25T12:37:17.343Z,46.52
2023-07-25T12:39:48.266Z,46.74
2023-07-25T12:42:17.798Z,46.93
2023-07-25T12:44:46.928Z,46.63
2023-07-25T12:47:16.461Z,46.52
2023-07-25T12:49:45.706Z,46.58
2023-07-25T12:52:15.344Z,46.42
2023-07-25T12:54:46.008Z,47.03
2023-07-25T12:57:15.628Z,47.05
2023-07-25T12:59:44.930Z,46.74
2023-07-25T13:02:14.504Z,46.44
2023-07-25T13:04:43.689Z,46.92
2023-07-25T13:07:13.182Z,46.73
2023-07-25T13:09:42.303Z,46.31
2023-07-25T13:12:13.271Z,46.79
2023-07-25T13:14:42.424Z,46.17
2023-07-25T13:17:11.914Z,46.06
2023-07-25T13:19:41.018Z,45.82
2023-07-25T13:22:10.450Z,46.44
2023-07-25T13:24:39.572Z,46.47
2023-07-25T13:27:09.084Z,46.29
2023-07-25T13:29:39.583Z,46.75
2023-07-25T13:32:09.668Z,46.45
2023-07-25T13:34:38.828Z,46.42
2023-07-25T13:37:08.293Z,46.94
2023-07-25T13:39:37.460Z,46.87
2023-07-25T13:42:07.300Z,47.05
2023-07-25T13:44:36.463Z,47.36
2023-07-25T13:47:07.561Z,47.52
2023-07-25T13:49:36.729Z,46.82
2023-07-25T13:52:06.541Z,47.51
2023-07-25T13:54:35.735Z,47.23
2023-07-25T13:57:05.360Z,47.11
2023-07-25T13:59:34.562Z,47.45
2023-07-25T14:02:04.372Z,47.37
2023-07-25T14:04:35.092Z,47.56
2023-07-25T14:07:04.616Z,47.32
2023-07-25T14:09:33.792Z,47.43
2023-07-25T14:12:03.231Z,47.71
2023-07-25T14:14:32.332Z,47.37
2023-07-25T14:17:02.383Z,48.16
2023-07-25T14:19:31.693Z,47.58
2023-07-25T14:22:02.783Z,47.42
2023-07-25T14:24:31.989Z,47.56
2023-07-25T14:27:01.561Z,47.67
2023-07-25T14:29:30.702Z,47.54
2023-07-25T14:32:00.624Z,47.19
2023-07-25T14:34:29.696Z,47.53
2023-07-25T14:36:59.180Z,46.72
2023-07-25T14:39:29.831Z,47.24
2023-07-25T14:41:59.373Z,46.99
2023-07-25T14:44:28.509Z,47.07
2023-07-25T14:46:58.056Z,46.75
2023-07-25T14:49:27.120Z,47.32
2023-07-25T14:51:56.601Z,47.10
2023-07-25T14:54:25.680Z,47.11
2023-07-25T14:56:56.752Z,46.98
2023-07-25T14:59:25.767Z,46.93
2023-07-25T15:01:57.694Z,47.34
2023-07-25T15:04:26.863Z,46.87
2023-07-25T15:06:56.397Z,46.97
2023-07-25T15:09:25.535Z,46.36
2023-07-25T15:11:56.482Z,46.80
2023-07-25T15:14:25.769Z,46.17
2023-07-25T15:16:56.873Z,45.73
2023-07-25T15:19:28.176Z,45.88
2023-07-25T15:21:58.239Z,45.61
2023-07-25T15:24:27.422Z,45.47
2023-07-25T15:26:58.873Z,45.31
2023-07-25T15:29:28.112Z,44.51
2023-07-25T15:31:58.609Z,45.29
2023-07-25T15:34:27.670Z,44.81
2023-07-25T15:37:01.625Z,44.89
2023-07-25T15:39:30.704Z,44.94
2023-07-25T15:42:01.539Z,44.60
2023-07-25T15:44:30.533Z,44.47
2023-07-25T15:47:00.227Z,44.93
2023-07-25T15:49:35.296Z,44.54
2023-07-25T15:52:05.044Z,44.11
2023-07-25T15:54:34.276Z,44.93
2023-07-25T15:57:05.528Z,44.71
2023-07-25T15:59:34.580Z,45.03
2023-07-25T16:02:03.998Z,44.45
2023-07-25T16:04:33.199Z,44.59
2023-07-25T16:07:02.538Z,44.94
2023-07-25T16:09:31.801Z,44.10
2023-07-25T16:12:01.135Z,44.30
2023-07-25T16:14:31.622Z,43.71
2023-07-25T16:17:01.038Z,44.53
2023-07-25T16:19:30.180Z,43.97
2023-07-25T16:21:59.548Z,43.57
2023-07-25T16:24:28.609Z,43.48
2023-07-25T16:26:58.012Z,43.01
2023-07-25T16:29:27.107Z,43.02
2023-07-25T16:31:58.949Z,43.04
2023-07-25T16:34:28.052Z,43.34
2023-07-25T16:36:57.515Z,42.90
2023-07-25T16:39:26.658Z,43.57
2023-07-25T16:41:56.081Z,43.42
2023-07-25T16:44:29.314Z,43.64
2023-07-25T16:47:02.400Z,43.31
2023-07-25T16:49:31.699Z,43.64
2023-07-25T16:52:01.988Z,43.67
2023-07-25T16:54:31.218Z,43.55
2023-07-25T16:57:00.677Z,43.88
2023-07-25T16:59:31.997Z,43.89
2023-07-25T17:02:03.142Z,44.11
2023-07-25T17:04:32.303Z,44.32
2023-07-25T17:07:01.919Z,44.37
2023-07-25T17:09:31.130Z,44.21
2023-07-25T17:12:03.589Z,44.56
2023-07-25T17:14:33.527Z,44.45
2023-07-25T17:17:04.475Z,44.58
2023-07-25T17:19:33.653Z,44.52
2023-07-25T17:22:03.092Z,44.82
2023-07-25T17:24:32.243Z,44.62
2023-07-25T17:27:01.634Z,44.42
2023-07-25T17:29:30.747Z,44.44
2023-07-25T17:32:00.330Z,44.79
2023-07-25T17:34:32.380Z,44.25
2023-07-25T17:37:02.027Z,44.55
2023-07-25T17:39:31.083Z,44.51
2023-07-25T17:42:00.552Z,44.14
2023-07-25T17:44:29.602Z,44.46
2023-07-25T17:46:59.057Z,44.28
2023-07-25T17:49:28.162Z,44.05
2023-07-25T17:51:59.024Z,44.23
2023-07-25T17:54:28.099Z,44.01
2023-07-25T17:56:57.539Z,44.10
2023-07-25T17:59:26.618Z,44.10
2023-07-25T18:01:56.087Z,43.64
2023-07-25T18:04:25.255Z,43.63
2023-07-25T18:06:55.245Z,44.03
2023-07-25T18:09:26.114Z,44.24
2023-07-25T18:11:56.125Z,44.23
2023-07-25T18:14:25.318Z,43.88
2023-07-25T18:16:54.846Z,43.80
2023-07-25T18:19:24.180Z,44.24
2023-07-25T18:21:53.719Z,44.32
2023-07-25T18:24:22.957Z,44.36
2023-07-25T18:26:53.922Z,44.36
2023-07-25T18:29:23.057Z,44.41
2023-07-25T18:31:52.496Z,44.40
2023-07-25T18:34:21.716Z,44.51
2023-07-25T18:36:51.200Z,44.45
2023-07-25T18:39:20.342Z,44.65
2023-07-25T18:41:54.262Z,44.75
2023-07-25T18:44:23.415Z,44.58
2023-07-25T18:46:52.923Z,44.67
2023-07-25T18:49:22.289Z,44.73
2023-07-25T18:51:51.942Z,44.67
2023-07-25T18:54:21.135Z,44.70
2023-07-25T18:56:50.877Z,44.94
2023-07-25T18:59:21.560Z,44.94
2023-07-25T19:01:51.874Z,45.12
2023-07-25T19:04:21.321Z,45.05
2023-07-25T19:06:50.812Z,45.15
2023-07-25T19:09:21.568Z,45.21
2023-07-25T19:11:51.277Z,45.43
2023-07-25T19:14:28.073Z,45.68
2023-07-25T19:16:59.243Z,45.46
2023-07-25T19:19:31.320Z,45.53
2023-07-25T19:22:00.878Z,45.49
2023-07-25T19:24:30.022Z,45.51
2023-07-25T19:27:01.006Z,45.47
2023-07-25T19:29:31.705Z,45.58
2023-07-25T19:32:01.196Z,45.65
2023-07-25T19:34:30.481Z,45.32
2023-07-25T19:37:00.008Z,45.27
2023-07-25T19:39:29.139Z,45.52
2023-07-25T19:41:58.665Z,45.39
2023-07-25T19:44:27.730Z,45.44
2023-07-25T19:46:58.812Z,45.44
2023-07-25T19:49:27.906Z,45.53
2023-07-25T19:51:57.494Z,45.47
2023-07-25T19:54:26.602Z,45.66
2023-07-25T19:56:56.028Z,45.85
2023-07-25T19:59:25.264Z,45.75
2023-07-25T20:01:55.279Z,45.83
2023-07-25T20:04:25.918Z,45.77
2023-07-25T20:06:55.598Z,45.66
2023-07-25T20:09:24.824Z,45.64
2023-07-25T20:11:56.362Z,45.82
2023-07-25T20:14:25.583Z,45.74
2023-07-25T20:16:55.276Z,45.76
2023-07-25T20:19:27.189Z,45.63
2023-07-25T20:21:56.726Z,45.79
2023-07-25T20:24:30.648Z,45.71
2023-07-25T20:27:03.188Z,45.84
2023-07-25T20:29:32.278Z,45.79
2023-07-25T20:32:01.914Z,45.88
2023-07-25T20:34:32.423Z,45.84
2023-07-25T20:37:02.297Z,45.83
2023-07-25T20:39:31.740Z,45.79
2023-07-25T20:42:02.480Z,45.86
2023-07-25T20:44:31.845Z,46.08
2023-07-25T20:47:01.421Z,46.04
2023-07-25T20:49:30.646Z,45.99
2023-07-25T20:52:01.857Z,45.94
2023-07-25T20:54:31.099Z,45.66
2023-07-25T20:57:00.829Z,46.04
2023-07-25T20:59:30.041Z,46.13
2023-07-25T21:01:59.690Z,46.01
2023-07-25T21:04:29.230Z,46.04
2023-07-25T21:06:58.929Z,46.06
2023-07-25T21:09:31.070Z,46.12
2023-07-25T21:12:00.480Z,45.93
2023-07-25T21:14:29.548Z,46.26
2023-07-25T21:17:00.040Z,46.18
2023-07-25T21:19:29.109Z,46.40
2023-07-25T21:21:58.553Z,46.46
2023-07-25T21:24:46.201Z,46.51
2023-07-25T21:27:51.594Z,46.58
2023-07-25T21:30:44.847Z,46.40
2023-07-25T21:33:14.319Z,46.37
2023-07-25T21:35:43.418Z,46.82
2023-07-25T21:38:12.830Z,46.78
2023-07-25T21:40:41.914Z,46.68
2023-07-25T21:43:12.729Z,46.64
2023-07-25T21:45:41.847Z,46.85
2023-07-25T21:48:11.340Z,46.97
2023-07-25T21:50:40.391Z,47.03
2023-07-25T21:53:09.981Z,46.92
2023-07-25T21:55:39.137Z,46.94
2023-07-25T21:58:08.638Z,47.14
2023-07-25T22:00:39.222Z,47.24
2023-07-25T22:03:08.906Z,47.07
2023-07-25T22:05:38.157Z,47.17
2023-07-25T22:08:07.632Z,47.14
2023-07-25T22:10:37.074Z,47.37
2023-07-25T22:13:06.669Z,47.16
2023-07-25T22:15:35.959Z,47.27
2023-07-25T22:18:06.911Z,47.35
2023-07-25T22:20:51.001Z,47.34
2023-07-25T22:23:22.269Z,47.36
2023-07-25T22:25:51.372Z,47.32
2023-07-25T22:28:20.808Z,47.26
2023-07-25T22:30:49.866Z,47.33
2023-07-25T22:33:20.706Z,47.31
2023-07-25T22:35:49.789Z,47.44
2023-07-25T22:38:19.201Z,47.38
2023-07-25T22:40:48.309Z,47.23
2023-07-25T22:43:17.728Z,47.61
2023-07-25T22:45:46.893Z,47.63
2023-07-25T22:48:16.409Z,47.57
2023-07-25T22:50:46.852Z,47.54
2023-07-25T22:53:16.324Z,47.63
2023-07-25T22:55:45.412Z,47.71
2023-07-25T22:58:14.805Z,47.79
2023-07-25T23:00:43.917Z,48.09
2023-07-25T23:03:13.364Z,48.12
2023-07-25T23:05:42.580Z,48.14
2023-07-25T23:08:13.501Z,48.25
2023-07-25T23:10:42.603Z,48.61
2023-07-25T23:13:11.978Z,48.43
2023-07-25T23:15:43.250Z,48.36
2023-07-25T23:18:12.701Z,48.41
2023-07-25T23:20:41.768Z,48.37
2023-07-25T23:23:11.159Z,48.55
2023-07-25T23:25:41.594Z,48.43
2023-07-25T23:28:11.072Z,48.79
2023-07-25T23:30:40.134Z,48.92
2023-07-25T23:33:09.642Z,48.97
2023-07-25T23:35:38.793Z,49.15
2023-07-25T23:38:08.108Z,49.16
2023-07-25T23:40:37.312Z,49.45
2023-07-25T23:43:08.104Z,49.31
2023-07-25T23:45:37.146Z,49.42
2023-07-25T23:48:06.995Z,49.34
2023-07-25T23:50:36.126Z,49.58
2023-07-25T23:53:05.521Z,49.13
2023-07-25T23:55:34.859Z,49.51
2023-07-25T23:58:04.247Z,49.64
